createdAt,value
2023-02-06T00:01:52.793Z,104486.94
2023-02-06T00:04:21.693Z,104480.22
2023-02-06T00:06:51.490Z,104478.66
2023-02-06T00:09:20.474Z,104474.41
2023-02-06T00:11:49.154Z,104477.22
2023-02-06T00:14:19.678Z,104478.06
2023-02-06T00:16:48.206Z,104461.06
2023-02-06T00:19:16.765Z,104477.88
2023-02-06T00:21:45.583Z,104471.72
2023-02-06T00:24:14.078Z,104464.44
2023-02-06T00:26:42.780Z,104473.34
2023-02-06T00:29:11.330Z,104478.69
2023-02-06T00:31:41.549Z,104479.59
2023-02-06T00:34:10.990Z,104472.47
2023-02-06T00:36:39.524Z,104475.91
2023-02-06T00:39:08.131Z,104472.34
2023-02-06T00:41:36.682Z,104469.59
2023-02-06T00:44:05.363Z,104474.94
2023-02-06T00:46:34.128Z,104465.19
2023-02-06T00:49:05.100Z,104460.78
2023-02-06T00:51:33.876Z,104457.03
2023-02-06T00:54:02.696Z,104458.72
2023-02-06T00:56:31.299Z,104457.13
2023-02-06T00:59:00.306Z,104476.56
2023-02-06T01:01:29.690Z,104481.00
2023-02-06T01:03:58.378Z,104478.56
2023-02-06T01:06:28.376Z,104490.88
2023-02-06T01:08:57.141Z,104485.53
2023-02-06T01:11:27.671Z,104490.47
2023-02-06T01:13:56.809Z,104488.47
2023-02-06T01:16:26.835Z,104489.00
2023-02-06T01:18:55.984Z,104476.13
2023-02-06T01:21:28.143Z,104490.94
2023-02-06T01:23:57.473Z,104488.56
2023-02-06T01:26:28.157Z,104487.34
2023-02-06T01:28:57.993Z,104489.38
2023-02-06T01:31:28.667Z,104486.88
2023-02-06T01:34:00.281Z,104493.28
2023-02-06T01:36:30.940Z,104477.22
2023-02-06T01:39:00.521Z,104474.59
2023-02-06T01:41:29.275Z,104476.28
2023-02-06T01:44:15.788Z,104476.44
2023-02-06T01:46:47.187Z,104477.22
2023-02-06T01:49:21.978Z,104473.66
2023-02-06T01:51:55.319Z,104478.28
2023-02-06T01:54:24.393Z,104463.97
2023-02-06T01:56:57.629Z,104451.50
2023-02-06T01:59:27.701Z,104448.69
2023-02-06T02:01:56.552Z,104461.06
2023-02-06T02:04:28.058Z,104460.75
2023-02-06T02:07:07.857Z,104458.47
2023-02-06T02:09:36.602Z,104454.06
2023-02-06T02:12:06.284Z,104461.19
2023-02-06T02:14:35.410Z,104452.19
2023-02-06T02:17:22.035Z,104450.41
2023-02-06T02:20:47.696Z,104447.72
2023-02-06T02:23:32.698Z,104435.22
2023-02-06T02:26:43.636Z,104437.84
2023-02-06T02:29:53.573Z,104429.78
2023-02-06T02:33:11.685Z,104433.16
2023-02-06T02:35:54.589Z,104439.28
2023-02-06T02:38:39.735Z,104424.09
2023-02-06T02:41:16.765Z,104431.91
2023-02-06T02:43:52.396Z,104430.88
2023-02-06T02:46:27.639Z,104440.56
2023-02-06T02:48:58.273Z,104436.00
2023-02-06T02:51:28.512Z,104428.91
2023-02-06T02:53:58.304Z,104414.53
2023-02-06T02:56:28.720Z,104422.50
2023-02-06T02:59:03.412Z,104418.16
2023-02-06T03:01:36.896Z,104428.81
2023-02-06T03:04:13.416Z,104419.81
2023-02-06T03:07:02.093Z,104422.34
2023-02-06T03:09:46.052Z,104424.88
2023-02-06T03:12:23.036Z,104416.00
2023-02-06T03:15:01.119Z,104417.69
2023-02-06T03:17:37.674Z,104421.19
2023-02-06T03:20:09.893Z,104426.53
2023-02-06T03:22:42.074Z,104413.00
2023-02-06T03:25:17.458Z,104428.09
2023-02-06T03:27:48.150Z,104415.56
2023-02-06T03:30:20.592Z,104418.09
2023-02-06T03:32:55.044Z,104416.25
2023-02-06T03:35:30.324Z,104416.94
2023-02-06T03:38:00.150Z,104421.31
2023-02-06T03:40:29.507Z,104417.81
2023-02-06T03:43:02.655Z,104411.47
2023-02-06T03:45:38.146Z,104410.59
2023-02-06T03:48:15.722Z,104421.03
2023-02-06T03:50:50.276Z,104431.69
2023-02-06T03:53:22.472Z,104427.16
2023-02-06T03:55:57.732Z,104433.28
2023-02-06T03:58:26.104Z,104433.94
2023-02-06T04:00:54.851Z,104427.84
2023-02-06T04:03:23.786Z,104427.84
2023-02-06T04:05:52.356Z,104430.47
2023-02-06T04:08:22.315Z,104425.06
2023-02-06T04:10:50.864Z,104428.03
2023-02-06T04:13:31.526Z,104430.44
2023-02-06T04:16:00.459Z,104436.00
2023-02-06T04:18:29.012Z,104433.97
2023-02-06T04:20:57.570Z,104423.34
2023-02-06T04:23:27.610Z,104425.28
2023-02-06T04:25:56.286Z,104425.19
2023-02-06T04:28:24.850Z,104430.38
2023-02-06T04:30:53.443Z,104425.97
2023-02-06T04:33:22.105Z,104428.66
2023-02-06T04:35:50.755Z,104424.19
2023-02-06T04:38:19.325Z,104430.38
2023-02-06T04:40:49.212Z,104413.44
2023-02-06T04:43:17.713Z,104415.84
2023-02-06T04:45:47.622Z,104408.00
2023-02-06T04:48:16.065Z,104405.34
2023-02-06T04:50:44.588Z,104413.41
2023-02-06T04:53:13.272Z,104412.53
2023-02-06T04:55:41.858Z,104421.44
2023-02-06T04:58:12.646Z,104423.06
2023-02-06T05:00:41.076Z,104425.00
2023-02-06T05:03:09.801Z,104425.78
2023-02-06T05:05:38.357Z,104432.06
2023-02-06T05:08:07.229Z,104440.16
2023-02-06T05:10:35.785Z,104433.16
2023-02-06T05:13:05.496Z,104430.53
2023-02-06T05:15:37.486Z,104444.81
2023-02-06T05:18:06.736Z,104446.53
2023-02-06T05:20:35.350Z,104445.66
2023-02-06T05:23:06.664Z,104434.16
2023-02-06T05:25:36.636Z,104447.50
2023-02-06T05:28:07.613Z,104458.16
2023-02-06T05:30:38.168Z,104445.53
2023-02-06T05:33:06.591Z,104439.50
2023-02-06T05:35:36.031Z,104444.91
2023-02-06T05:38:04.960Z,104444.91
2023-02-06T05:40:33.677Z,104444.09
2023-02-06T05:43:02.334Z,104442.31
2023-02-06T05:45:31.028Z,104439.75
2023-02-06T05:48:01.344Z,104444.63
2023-02-06T05:50:30.141Z,104440.59
2023-02-06T05:52:58.719Z,104437.94
2023-02-06T05:55:27.610Z,104437.84
2023-02-06T05:57:57.272Z,104448.66
2023-02-06T06:00:26.187Z,104444.25
2023-02-06T06:02:54.996Z,104452.44
2023-02-06T06:05:25.853Z,104442.72
2023-02-06T06:07:54.508Z,104430.38
2023-02-06T06:10:23.083Z,104431.28
2023-02-06T06:12:51.870Z,104426.97
2023-02-06T06:15:20.534Z,104436.91
2023-02-06T06:17:49.223Z,104438.50
2023-02-06T06:20:18.303Z,104444.03
2023-02-06T06:22:48.628Z,104450.28
2023-02-06T06:25:17.390Z,104439.59
2023-02-06T06:27:45.997Z,104451.22
2023-02-06T06:30:15.476Z,104445.00
2023-02-06T06:32:44.216Z,104442.38
2023-02-06T06:35:12.697Z,104438.81
2023-02-06T06:37:41.588Z,104443.25
2023-02-06T06:40:13.158Z,104452.09
2023-02-06T06:42:41.739Z,104444.09
2023-02-06T06:45:11.195Z,104448.63
2023-02-06T06:47:39.876Z,104437.91
2023-02-06T06:50:09.044Z,104445.00
2023-02-06T06:52:37.925Z,104430.84
2023-02-06T06:55:07.598Z,104438.03
2023-02-06T06:57:37.595Z,104436.28
2023-02-06T07:00:07.607Z,104434.50
2023-02-06T07:02:36.170Z,104430.88
2023-02-06T07:05:05.472Z,104437.16
2023-02-06T07:07:34.652Z,104441.50
2023-02-06T07:10:03.603Z,104433.47
2023-02-06T07:12:32.408Z,104436.97
2023-02-06T07:15:05.696Z,104427.28
2023-02-06T07:17:34.976Z,104426.34
2023-02-06T07:20:03.771Z,104418.31
2023-02-06T07:22:32.402Z,104420.16
2023-02-06T07:25:01.150Z,104404.22
2023-02-06T07:27:29.699Z,104399.00
2023-02-06T07:29:59.739Z,104393.59
2023-02-06T07:32:29.715Z,104387.47
2023-02-06T07:34:58.285Z,104377.66
2023-02-06T07:37:27.010Z,104376.91
2023-02-06T07:39:55.446Z,104370.66
2023-02-06T07:42:24.005Z,104371.72
2023-02-06T07:44:52.585Z,104365.47
2023-02-06T07:47:21.117Z,104359.28
2023-02-06T07:49:52.199Z,104359.41
2023-02-06T07:52:22.395Z,104361.28
2023-02-06T07:54:51.017Z,104369.28
2023-02-06T07:57:20.088Z,104357.69
2023-02-06T07:59:48.585Z,104356.16
2023-02-06T08:02:17.086Z,104350.66
2023-02-06T08:04:45.866Z,104352.66
2023-02-06T08:07:19.265Z,104357.00
2023-02-06T08:09:47.972Z,104349.03
2023-02-06T08:12:16.602Z,104345.50
2023-02-06T08:14:45.986Z,104350.50
2023-02-06T08:17:19.644Z,104353.75
2023-02-06T08:19:49.590Z,104349.47
2023-02-06T08:22:19.679Z,104358.31
2023-02-06T08:24:48.901Z,104359.13
2023-02-06T08:27:17.538Z,104342.16
2023-02-06T08:29:46.225Z,104343.09
2023-02-06T08:32:14.970Z,104353.81
2023-02-06T08:34:43.705Z,104359.63
2023-02-06T08:37:12.693Z,104353.41
2023-02-06T08:39:43.045Z,104358.97
2023-02-06T08:42:12.658Z,104362.47
2023-02-06T08:44:41.178Z,104360.94
2023-02-06T08:47:10.739Z,104351.31
2023-02-06T08:49:39.921Z,104342.34
2023-02-06T08:52:08.898Z,104345.91
2023-02-06T08:54:38.913Z,104346.28
2023-02-06T08:57:09.874Z,104341.59
2023-02-06T08:59:38.665Z,104339.22
2023-02-06T09:02:08.608Z,104342.09
2023-02-06T09:04:37.947Z,104332.31
2023-02-06T09:07:07.290Z,104321.75
2023-02-06T09:09:36.034Z,104324.47
2023-02-06T09:12:05.366Z,104328.97
2023-02-06T09:14:35.663Z,104326.28
2023-02-06T09:17:04.487Z,104330.00
2023-02-06T09:19:33.155Z,104325.56
2023-02-06T09:22:01.995Z,104324.50
2023-02-06T09:24:32.594Z,104330.84
2023-02-06T09:27:01.337Z,104328.97
2023-02-06T09:29:31.985Z,104333.63
2023-02-06T09:32:02.912Z,104330.97
2023-02-06T09:34:31.692Z,104336.28
2023-02-06T09:37:03.537Z,104346.19
2023-02-06T09:39:32.681Z,104341.66
2023-02-06T09:42:08.500Z,104348.94
2023-02-06T09:44:43.353Z,104357.97
2023-02-06T09:47:24.176Z,104361.53
2023-02-06T09:49:57.758Z,104358.03
2023-02-06T09:52:45.667Z,104358.03
2023-02-06T09:55:27.535Z,104350.97
2023-02-06T09:58:04.985Z,104354.53
2023-02-06T10:00:44.091Z,104366.16
2023-02-06T10:03:36.447Z,104365.25
2023-02-06T10:06:19.499Z,104358.41
2023-02-06T10:08:59.600Z,104356.69
2023-02-06T10:11:42.638Z,104351.38
2023-02-06T10:14:22.380Z,104364.84
2023-02-06T10:16:57.807Z,104360.31
2023-02-06T10:19:43.900Z,104354.97
2023-02-06T10:22:21.198Z,104360.34
2023-02-06T10:25:01.671Z,104353.19
2023-02-06T10:27:34.554Z,104348.66
2023-02-06T10:30:04.238Z,104346.78
2023-02-06T10:32:45.937Z,104351.19
2023-02-06T10:35:41.121Z,104356.06
2023-02-06T10:38:53.263Z,104357.94
2023-02-06T10:41:33.586Z,104348.16
2023-02-06T10:44:17.627Z,104342.91
2023-02-06T10:46:51.000Z,104342.22
2023-02-06T10:49:30.563Z,104342.22
2023-02-06T10:52:05.042Z,104346.53
2023-02-06T10:54:40.054Z,104331.25
2023-02-06T10:57:18.486Z,104340.53
2023-02-06T10:59:53.665Z,104344.91
2023-02-06T11:02:35.584Z,104344.06
2023-02-06T11:05:10.744Z,104360.19
2023-02-06T11:07:46.531Z,104344.94
2023-02-06T11:10:19.104Z,104351.97
2023-02-06T11:12:53.226Z,104343.06
2023-02-06T11:15:32.766Z,104336.84
2023-02-06T11:18:05.662Z,104339.63
2023-02-06T11:20:37.924Z,104335.84
2023-02-06T11:23:20.440Z,104338.63
2023-02-06T11:25:58.294Z,104346.72
2023-02-06T11:28:28.161Z,104333.34
2023-02-06T11:31:00.041Z,104334.97
2023-02-06T11:33:39.178Z,104324.09
2023-02-06T11:36:27.360Z,104335.75
2023-02-06T11:39:00.964Z,104328.53
2023-02-06T11:41:31.499Z,104325.13
2023-02-06T11:44:06.600Z,104312.97
2023-02-06T11:46:37.391Z,104311.34
2023-02-06T11:49:22.620Z,104311.50
2023-02-06T11:51:54.396Z,104313.34
2023-02-06T11:54:30.661Z,104299.94
2023-02-06T11:57:04.495Z,104299.13
2023-02-06T11:59:35.485Z,104296.91
2023-02-06T12:02:23.560Z,104301.34
2023-02-06T12:04:54.593Z,104299.63
2023-02-06T12:07:31.249Z,104293.34
2023-02-06T12:10:06.887Z,104295.56
2023-02-06T12:12:39.146Z,104292.63
2023-02-06T12:15:39.963Z,104295.44
2023-02-06T12:18:08.180Z,104295.94
2023-02-06T12:20:48.515Z,104286.50
2023-02-06T12:23:26.032Z,104283.75
2023-02-06T12:26:01.219Z,104290.13
2023-02-06T12:28:35.518Z,104290.09
2023-02-06T12:31:11.512Z,104288.28
2023-02-06T12:33:46.390Z,104290.00
2023-02-06T12:36:21.010Z,104295.16
2023-02-06T12:38:56.236Z,104284.59
2023-02-06T12:41:45.418Z,104282.25
2023-02-06T12:44:28.250Z,104280.88
2023-02-06T12:47:07.802Z,104285.97
2023-02-06T12:49:47.039Z,104282.84
2023-02-06T12:52:23.244Z,104276.44
2023-02-06T12:54:56.969Z,104280.53
2023-02-06T12:57:31.301Z,104269.84
2023-02-06T13:00:41.691Z,104263.09
2023-02-06T13:03:32.799Z,104255.63
2023-02-06T13:06:26.115Z,104247.72
2023-02-06T13:08:59.862Z,104243.16
2023-02-06T13:11:33.317Z,104247.50
2023-02-06T13:14:08.840Z,104236.16
2023-02-06T13:16:54.207Z,104245.06
2023-02-06T13:19:28.899Z,104242.22
2023-02-06T13:22:43.105Z,104232.66
2023-02-06T13:25:54.742Z,104233.22
2023-02-06T13:28:59.043Z,104223.41
2023-02-06T13:31:35.622Z,104224.09
2023-02-06T13:34:17.024Z,104221.69
2023-02-06T13:36:54.255Z,104224.38
2023-02-06T13:39:34.201Z,104230.63
2023-02-06T13:42:45.022Z,104215.88
2023-02-06T13:45:24.521Z,104218.44
2023-02-06T13:48:57.755Z,104213.78
2023-02-06T13:51:48.540Z,104209.09
2023-02-06T13:55:02.485Z,104209.16
2023-02-06T13:57:54.968Z,104199.00
2023-02-06T14:00:30.512Z,104207.56
2023-02-06T14:03:14.844Z,104200.38
2023-02-06T14:05:55.687Z,104187.88
2023-02-06T14:08:38.748Z,104188.31
2023-02-06T14:11:28.181Z,104197.38
2023-02-06T14:14:31.003Z,104207.78
2023-02-06T14:17:14.842Z,104208.25
2023-02-06T14:19:52.769Z,104204.44
2023-02-06T14:22:35.450Z,104189.94
2023-02-06T14:25:23.318Z,104187.75
2023-02-06T14:28:13.057Z,104191.84
2023-02-06T14:30:52.465Z,104184.06
2023-02-06T14:33:44.524Z,104192.19
2023-02-06T14:36:34.125Z,104187.66
2023-02-06T14:39:48.511Z,104185.97
2023-02-06T14:42:22.100Z,104185.91
2023-02-06T14:44:57.289Z,104178.75
2023-02-06T14:47:32.602Z,104185.34
2023-02-06T14:50:02.984Z,104183.69
2023-02-06T14:52:35.932Z,104197.78
2023-02-06T14:55:35.686Z,104191.53
2023-02-06T14:58:06.090Z,104189.03
2023-02-06T15:00:36.634Z,104189.84
2023-02-06T15:03:15.859Z,104195.47
2023-02-06T15:05:46.736Z,104185.44
2023-02-06T15:08:22.137Z,104187.97
2023-02-06T15:11:02.589Z,104193.50
2023-02-06T15:13:38.689Z,104211.41
2023-02-06T15:16:10.360Z,104223.00
2023-02-06T15:18:39.438Z,104217.00
2023-02-06T15:21:14.052Z,104221.44
2023-02-06T15:23:59.706Z,104217.72
2023-02-06T15:26:38.267Z,104216.91
2023-02-06T15:29:14.924Z,104224.13
2023-02-06T15:31:50.107Z,104222.38
2023-02-06T15:34:22.970Z,104217.06
2023-02-06T15:36:51.980Z,104202.97
2023-02-06T15:39:22.902Z,104210.09
2023-02-06T15:41:53.928Z,104206.53
2023-02-06T15:44:29.669Z,104197.72
2023-02-06T15:46:59.339Z,104203.06
2023-02-06T15:49:40.299Z,104195.09
2023-02-06T15:52:10.325Z,104184.41
2023-02-06T15:54:44.971Z,104194.19
2023-02-06T15:57:31.529Z,104191.56
2023-02-06T16:00:03.778Z,104203.16
2023-02-06T16:02:36.314Z,104212.06
2023-02-06T16:05:22.130Z,104206.75
2023-02-06T16:07:51.343Z,104201.38
2023-02-06T16:10:25.987Z,104196.94
2023-02-06T16:12:59.111Z,104206.75
2023-02-06T16:15:38.728Z,104197.81
2023-02-06T16:18:29.071Z,104201.38
2023-02-06T16:21:15.090Z,104193.34
2023-02-06T16:23:49.811Z,104200.50
2023-02-06T16:26:23.415Z,104209.41
2023-02-06T16:29:00.811Z,104206.75
2023-02-06T16:31:32.880Z,104211.19
2023-02-06T16:34:03.451Z,104207.63
2023-02-06T16:36:38.385Z,104211.19
2023-02-06T16:39:07.684Z,104212.97
2023-02-06T16:41:42.973Z,104204.03
2023-02-06T16:44:17.330Z,104211.16
2023-02-06T16:46:46.834Z,104209.34
2023-02-06T16:49:19.770Z,104220.88
2023-02-06T16:51:51.319Z,104230.69
2023-02-06T16:54:26.464Z,104219.06
2023-02-06T16:57:00.080Z,104217.25
2023-02-06T16:59:29.384Z,104232.34
2023-02-06T17:01:58.259Z,104243.84
2023-02-06T17:04:27.272Z,104234.00
2023-02-06T17:06:56.560Z,104236.63
2023-02-06T17:09:25.334Z,104238.41
2023-02-06T17:11:55.683Z,104230.25
2023-02-06T17:14:24.783Z,104239.16
2023-02-06T17:16:56.321Z,104227.50
2023-02-06T17:19:27.976Z,104232.72
2023-02-06T17:21:56.542Z,104227.31
2023-02-06T17:24:25.543Z,104233.50
2023-02-06T17:26:56.071Z,104228.06
2023-02-06T17:29:25.392Z,104220.84
2023-02-06T17:31:54.220Z,104219.03
2023-02-06T17:34:25.645Z,104214.63
2023-02-06T17:36:56.148Z,104214.53
2023-02-06T17:39:25.685Z,104203.72
2023-02-06T17:41:56.730Z,104203.69
2023-02-06T17:44:25.580Z,104216.09
2023-02-06T17:46:54.270Z,104216.03
2023-02-06T17:49:23.094Z,104206.25
2023-02-06T17:51:52.070Z,104205.44
2023-02-06T17:54:20.842Z,104212.59
2023-02-06T17:56:49.874Z,104221.44
2023-02-06T17:59:20.629Z,104224.81
2023-02-06T18:01:49.600Z,104218.59
2023-02-06T18:04:21.435Z,104213.81
2023-02-06T18:06:50.451Z,104202.19
2023-02-06T18:09:19.418Z,104209.50
2023-02-06T18:11:48.325Z,104207.72
2023-02-06T18:14:17.639Z,104203.25
2023-02-06T18:16:48.463Z,104205.84
2023-02-06T18:19:24.130Z,104206.50
2023-02-06T18:21:53.430Z,104202.91
2023-02-06T18:24:22.488Z,104202.88
2023-02-06T18:26:51.849Z,104202.00
2023-02-06T18:29:20.638Z,104202.88
2023-02-06T18:31:51.052Z,104193.88
2023-02-06T18:34:20.570Z,104192.00
2023-02-06T18:36:49.698Z,104189.25
2023-02-06T18:39:19.045Z,104193.72
2023-02-06T18:42:05.845Z,104192.78
2023-02-06T18:44:44.333Z,104190.94
2023-02-06T18:47:18.981Z,104191.78
2023-02-06T18:49:48.380Z,104184.63
2023-02-06T18:52:18.115Z,104180.97
2023-02-06T18:54:48.916Z,104178.19
2023-02-06T18:57:19.140Z,104183.31
2023-02-06T18:59:48.439Z,104176.19
2023-02-06T19:02:18.982Z,104172.56
2023-02-06T19:04:50.934Z,104173.38
2023-02-06T19:07:20.053Z,104175.88
2023-02-06T19:09:49.098Z,104174.25
2023-02-06T19:12:17.998Z,104176.25
2023-02-06T19:14:46.745Z,104168.47
2023-02-06T19:17:17.733Z,104165.72
2023-02-06T19:19:46.838Z,104161.19
2023-02-06T19:22:16.565Z,104160.06
2023-02-06T19:24:46.350Z,104145.72
2023-02-06T19:27:15.830Z,104150.41
2023-02-06T19:29:44.754Z,104152.94
2023-02-06T19:32:13.763Z,104156.22
2023-02-06T19:34:45.399Z,104157.16
2023-02-06T19:37:20.809Z,104160.66
2023-02-06T19:39:49.934Z,104150.00
2023-02-06T19:42:19.146Z,104157.75
2023-02-06T19:44:48.214Z,104159.53
2023-02-06T19:47:18.768Z,104152.34
2023-02-06T19:49:52.772Z,104154.66
2023-02-06T19:52:22.267Z,104146.81
2023-02-06T19:54:50.995Z,104147.66
2023-02-06T19:57:19.863Z,104146.78
2023-02-06T19:59:48.711Z,104153.59
2023-02-06T20:02:17.743Z,104157.19
2023-02-06T20:04:46.646Z,104144.69
2023-02-06T20:07:17.186Z,104145.59
2023-02-06T20:09:46.038Z,104148.06
2023-02-06T20:12:18.262Z,104144.38
2023-02-06T20:14:47.215Z,104149.59
2023-02-06T20:17:17.548Z,104141.72
2023-02-06T20:19:46.374Z,104138.03
2023-02-06T20:22:16.655Z,104140.81
2023-02-06T20:24:45.760Z,104145.25
2023-02-06T20:27:15.465Z,104145.75
2023-02-06T20:29:46.041Z,104146.84
2023-02-06T20:32:16.679Z,104148.38
2023-02-06T20:34:45.394Z,104149.31
2023-02-06T20:37:17.790Z,104144.88
2023-02-06T20:39:46.619Z,104132.50
2023-02-06T20:42:15.515Z,104131.69
2023-02-06T20:44:44.171Z,104121.75
2023-02-06T20:47:12.792Z,104128.88
2023-02-06T20:49:43.159Z,104129.78
2023-02-06T20:52:11.867Z,104135.72
2023-02-06T20:54:42.616Z,104133.81
2023-02-06T20:57:11.300Z,104140.91
2023-02-06T20:59:40.248Z,104135.44
2023-02-06T21:02:11.144Z,104138.13
2023-02-06T21:04:39.765Z,104134.59
2023-02-06T21:07:08.684Z,104138.66
2023-02-06T21:09:40.047Z,104144.97
2023-02-06T21:12:11.536Z,104144.78
2023-02-06T21:14:40.568Z,104154.56
2023-02-06T21:17:10.211Z,104152.44
2023-02-06T21:19:40.669Z,104149.03
2023-02-06T21:22:13.492Z,104147.19
2023-02-06T21:24:42.645Z,104134.75
2023-02-06T21:27:13.095Z,104146.09
2023-02-06T21:29:41.819Z,104132.56
2023-02-06T21:32:13.894Z,104141.94
2023-02-06T21:34:43.864Z,104140.03
2023-02-06T21:37:12.735Z,104149.94
2023-02-06T21:39:41.379Z,104147.47
2023-02-06T21:42:12.022Z,104147.38
2023-02-06T21:44:40.648Z,104142.69
2023-02-06T21:47:10.039Z,104145.63
2023-02-06T21:49:39.445Z,104142.84
2023-02-06T21:52:08.008Z,104141.97
2023-02-06T21:54:36.555Z,104139.81
2023-02-06T21:57:05.370Z,104140.84
2023-02-06T21:59:36.535Z,104143.72
2023-02-06T22:02:05.451Z,104134.03
2023-02-06T22:04:34.107Z,104127.38
2023-02-06T22:07:02.744Z,104129.13
2023-02-06T22:09:31.604Z,104139.03
2023-02-06T22:12:01.748Z,104144.81
2023-02-06T22:14:30.526Z,104143.78
2023-02-06T22:17:00.844Z,104138.31
2023-02-06T22:19:29.804Z,104131.16
2023-02-06T22:21:58.270Z,104137.75
2023-02-06T22:24:26.980Z,104145.25
2023-02-06T22:26:55.664Z,104138.19
2023-02-06T22:29:24.587Z,104130.97
2023-02-06T22:31:53.074Z,104129.31
2023-02-06T22:34:23.090Z,104125.75
2023-02-06T22:36:52.966Z,104130.00
2023-02-06T22:39:21.760Z,104132.81
2023-02-06T22:41:50.842Z,104131.75
2023-02-06T22:44:21.629Z,104130.81
2023-02-06T22:46:53.146Z,104141.47
2023-02-06T22:49:24.541Z,104132.47
2023-02-06T22:51:53.112Z,104138.53
2023-02-06T22:54:21.898Z,104150.91
2023-02-06T22:56:50.523Z,104139.28
2023-02-06T22:59:21.872Z,104152.53
2023-02-06T23:01:53.506Z,104161.41
2023-02-06T23:04:25.688Z,104156.19
2023-02-06T23:06:55.232Z,104155.69
2023-02-06T23:09:27.162Z,104158.34
2023-02-06T23:11:58.242Z,104158.34
2023-02-06T23:14:27.815Z,104159.25
2023-02-06T23:16:56.914Z,104162.84
2023-02-06T23:19:27.321Z,104160.09
2023-02-06T23:21:56.453Z,104158.22
2023-02-06T23:24:24.942Z,104158.97
2023-02-06T23:26:54.591Z,104150.19
2023-02-06T23:29:24.553Z,104154.69
2023-02-06T23:31:53.768Z,104147.22
2023-02-06T23:34:24.546Z,104152.84
2023-02-06T23:36:54.894Z,104150.75
2023-02-06T23:39:23.887Z,104154.41
2023-02-06T23:41:52.489Z,104148.19
2023-02-06T23:44:21.317Z,104146.06
2023-02-06T23:46:49.655Z,104158.56
2023-02-06T23:49:19.969Z,104155.03
2023-02-06T23:51:48.386Z,104145.28
2023-02-06T23:54:18.272Z,104155.66
2023-02-06T23:56:46.822Z,104152.28
2023-02-06T23:59:15.345Z,104138.44
